createdAt,value
2019-02-09T00:00:36.619Z,77.95
2019-02-09T00:01:35.153Z,78.04
2019-02-09T00:02:33.703Z,78.04
2019-02-09T00:03:32.441Z,77.85
2019-02-09T00:04:31.034Z,77.85
2019-02-09T00:05:29.598Z,77.95
2019-02-09T00:06:28.288Z,77.85
2019-02-09T00:07:27.052Z,77.19
2019-02-09T00:08:26.547Z,77.42
2019-02-09T00:09:25.238Z,77.61
2019-02-09T00:10:23.806Z,77.61
2019-02-09T00:11:22.384Z,78.08
2019-02-09T00:12:21.079Z,78.17
2019-02-09T00:13:19.616Z,78.17
2019-02-09T00:14:18.327Z,77.61
2019-02-09T00:15:16.913Z,77.51
2019-02-09T00:16:15.481Z,77.7
2019-02-09T00:17:14.136Z,77.13
2019-02-09T00:18:12.699Z,77.03
2019-02-09T00:19:11.216Z,77.03
2019-02-09T00:20:09.768Z,77.03
2019-02-09T00:21:08.374Z,77.03
2019-02-09T00:22:07.152Z,76.56
2019-02-09T00:23:05.687Z,76.46
2019-02-09T00:24:04.401Z,77.13
2019-02-09T00:25:03.011Z,77.32
2019-02-09T00:26:01.530Z,77.42
2019-02-09T00:27:00.270Z,77.51
2019-02-09T00:27:58.909Z,77.22
2019-02-09T00:28:57.445Z,76.27
2019-02-09T00:29:56.023Z,75.89
2019-02-09T00:30:54.577Z,75.23
2019-02-09T00:31:53.134Z,74.94
2019-02-09T00:32:51.688Z,74.46
2019-02-09T00:33:50.235Z,73.99
2019-02-09T00:34:48.862Z,73.8
2019-02-09T00:35:47.414Z,73.8
2019-02-09T00:36:46.628Z,73.89
2019-02-09T00:37:45.227Z,73.8
2019-02-09T00:38:43.771Z,73.99
2019-02-09T00:39:42.330Z,74.46
2019-02-09T00:40:40.863Z,73.99
2019-02-09T00:41:39.388Z,74.18
2019-02-09T00:42:37.982Z,73.89
2019-02-09T00:43:36.584Z,73.99
2019-02-09T00:44:35.242Z,73.89
2019-02-09T00:45:33.819Z,73.22
2019-02-09T00:46:32.399Z,73.32
2019-02-09T00:47:31.233Z,73.32
2019-02-09T00:48:29.678Z,73.51
2019-02-09T00:49:28.406Z,73.32
2019-02-09T00:50:26.954Z,73.7
2019-02-09T00:51:25.598Z,73.32
2019-02-09T00:52:24.067Z,73.13
2019-02-09T00:53:22.616Z,73.74
2019-02-09T00:54:21.150Z,73.17
2019-02-09T00:55:19.966Z,73.26
2019-02-09T00:56:18.835Z,73.36
2019-02-09T00:57:17.394Z,73.74
2019-02-09T00:58:15.973Z,73.41
2019-02-09T00:59:14.573Z,73.32
2019-02-09T01:00:13.205Z,73.32
2019-02-09T01:01:11.767Z,73.32
2019-02-09T01:02:10.616Z,73.45
2019-02-09T01:03:09.144Z,73.13
2019-02-09T01:04:08.482Z,73.13
2019-02-09T01:05:06.827Z,73.41
2019-02-09T01:06:05.342Z,73.45
2019-02-09T01:07:03.899Z,74.08
2019-02-09T01:08:02.646Z,73.26
2019-02-09T01:09:01.243Z,73.74
2019-02-09T01:09:59.773Z,73.13
2019-02-09T01:10:58.337Z,72.78
2019-02-09T01:11:56.972Z,72.85
2019-02-09T01:12:55.509Z,73.03
2019-02-09T01:13:54.188Z,72.94
2019-02-09T01:14:52.808Z,72.97
2019-02-09T01:15:51.384Z,73.07
2019-02-09T01:16:49.905Z,73.22
2019-02-09T01:17:48.416Z,72.56
2019-02-09T01:18:46.981Z,72.6
2019-02-09T01:19:45.519Z,72.69
2019-02-09T01:20:44.108Z,72.41
2019-02-09T01:21:42.748Z,72.21
2019-02-09T01:22:41.318Z,72.21
2019-02-09T01:23:39.936Z,72.12
2019-02-09T01:24:38.543Z,71.64
2019-02-09T01:25:37.143Z,71.45
2019-02-09T01:26:35.695Z,70.59
2019-02-09T01:27:34.359Z,71.07
2019-02-09T01:28:33.014Z,70.4
2019-02-09T01:29:31.537Z,70.12
2019-02-09T01:30:30.118Z,70.69
2019-02-09T01:31:28.670Z,70.4
2019-02-09T01:32:27.248Z,70.5
2019-02-09T01:33:25.802Z,70.02
2019-02-09T01:34:24.443Z,69.93
2019-02-09T01:35:22.995Z,71.07
2019-02-09T01:36:21.533Z,70.69
2019-02-09T01:37:20.242Z,70.02
2019-02-09T01:38:18.943Z,70.21
2019-02-09T01:39:17.477Z,70.02
2019-02-09T01:40:16.029Z,70.12
2019-02-09T01:41:14.716Z,70.02
2019-02-09T01:42:13.287Z,70.5
2019-02-09T01:43:11.874Z,70.5
2019-02-09T01:44:10.404Z,69.96
2019-02-09T01:45:09.234Z,70.25
2019-02-09T01:46:07.693Z,70.25
2019-02-09T01:47:06.400Z,69.96
2019-02-09T01:48:05.053Z,69.68
2019-02-09T01:49:03.588Z,69.96
2019-02-09T01:50:02.239Z,70.34
2019-02-09T01:51:00.870Z,70.63
2019-02-09T01:51:59.423Z,70.72
2019-02-09T01:52:57.991Z,71.68
2019-02-09T01:53:56.532Z,71.77
2019-02-09T01:54:55.108Z,72.16
2019-02-09T01:55:53.683Z,72.82
2019-02-09T01:56:53.034Z,72.82
2019-02-09T01:57:51.567Z,73.49
2019-02-09T01:58:50.110Z,74.44
2019-02-09T01:59:48.662Z,75.07
2019-02-09T02:00:47.541Z,75.59
2019-02-09T02:01:46.167Z,75.36
2019-02-09T02:02:44.915Z,76.25
2019-02-09T02:03:43.449Z,76.64
2019-02-09T02:04:41.994Z,76.69
2019-02-09T02:05:40.670Z,76.79
2019-02-09T02:06:39.333Z,77.45
2019-02-09T02:07:37.927Z,77.55
2019-02-09T02:08:36.628Z,77.64
2019-02-09T02:09:35.232Z,77.69
2019-02-09T02:10:33.780Z,77.69
2019-02-09T02:11:32.632Z,77.26
2019-02-09T02:12:31.231Z,77.2
2019-02-09T02:13:29.760Z,77.49
2019-02-09T02:14:28.324Z,77.49
2019-02-09T02:15:26.907Z,77.87
2019-02-09T02:16:25.457Z,77.83
2019-02-09T02:17:23.997Z,77.93
2019-02-09T02:18:22.648Z,77.55
2019-02-09T02:19:21.220Z,77.93
2019-02-09T02:20:19.738Z,78.25
2019-02-09T02:21:18.335Z,78.73
2019-02-09T02:22:16.897Z,78.92
2019-02-09T02:23:15.447Z,79.78
2019-02-09T02:24:13.985Z,79.02
2019-02-09T02:25:12.820Z,79.4
2019-02-09T02:26:11.415Z,79.88
2019-02-09T02:27:09.969Z,80.83
2019-02-09T02:28:08.552Z,80.79
2019-02-09T02:29:07.108Z,81.17
2019-02-09T02:30:05.664Z,81.46
2019-02-09T02:31:04.215Z,81.84
2019-02-09T02:32:02.747Z,81.46
2019-02-09T02:33:01.303Z,82.03
2019-02-09T02:33:59.864Z,82.6
2019-02-09T02:34:58.581Z,82.69
2019-02-09T02:35:57.141Z,83.45
2019-02-09T02:36:55.767Z,83.36
2019-02-09T02:37:54.387Z,84.31
2019-02-09T02:38:52.969Z,85.27
2019-02-09T02:39:51.547Z,85.17
2019-02-09T02:40:50.137Z,84.98
2019-02-09T02:41:48.733Z,85.41
2019-02-09T02:42:47.297Z,86.32
2019-02-09T02:43:45.864Z,86.6
2019-02-09T02:44:44.472Z,86.88
2019-02-09T02:45:43.061Z,87.17
2019-02-09T02:46:41.601Z,87.46
2019-02-09T02:47:40.318Z,87.27
2019-02-09T02:48:38.916Z,87.46
2019-02-09T02:49:37.466Z,87.55
2019-02-09T02:50:36.048Z,88.03
2019-02-09T02:51:34.617Z,88.12
2019-02-09T02:52:33.218Z,88.51
2019-02-09T02:53:31.774Z,88.98
2019-02-09T02:54:30.472Z,88.89
2019-02-09T02:55:29.053Z,89.51
2019-02-09T02:56:27.607Z,89.79
2019-02-09T02:57:26.151Z,89.7
2019-02-09T02:58:24.795Z,91.03
2019-02-09T02:59:23.553Z,91.6
2019-02-09T03:00:30.283Z,91.51
2019-02-09T03:01:21.099Z,91.89
2019-02-09T03:02:19.683Z,92.08
2019-02-09T03:03:18.239Z,92.08
2019-02-09T03:04:16.862Z,92.36
2019-02-09T03:05:16.091Z,93.22
2019-02-09T03:06:14.653Z,93.13
2019-02-09T03:07:13.323Z,93.51
2019-02-09T03:08:11.855Z,93.41
2019-02-09T03:09:10.628Z,92.84
2019-02-09T03:10:09.180Z,93.7
2019-02-09T03:11:07.753Z,93.98
2019-02-09T03:12:06.351Z,94.46
2019-02-09T03:13:05.319Z,94.74
2019-02-09T03:14:03.897Z,94.84
2019-02-09T03:15:02.462Z,94.93
2019-02-09T03:16:01.011Z,95.12
2019-02-09T03:16:59.561Z,96.65
2019-02-09T03:17:58.216Z,95.51
2019-02-09T03:18:56.815Z,95.98
2019-02-09T03:19:55.420Z,96.17
2019-02-09T03:20:53.970Z,96.17
2019-02-09T03:21:52.695Z,95.98
2019-02-09T03:22:51.359Z,95.89
2019-02-09T03:23:49.976Z,95.89
2019-02-09T03:24:48.465Z,95.41
2019-02-09T03:25:47.016Z,94.93
2019-02-09T03:26:45.569Z,95.12
2019-02-09T03:27:44.115Z,95.7
2019-02-09T03:28:42.683Z,96.46
2019-02-09T03:29:41.248Z,96.08
2019-02-09T03:30:47.409Z,95.98
2019-02-09T03:31:38.504Z,96.22
2019-02-09T03:32:37.112Z,96.12
2019-02-09T03:33:35.653Z,97.17
2019-02-09T03:34:34.948Z,96.51
2019-02-09T03:35:33.509Z,96.89
2019-02-09T03:36:32.113Z,96.31
2019-02-09T03:37:30.726Z,96.89
2019-02-09T03:38:29.258Z,97.08
2019-02-09T03:39:27.883Z,97.08
2019-02-09T03:40:26.841Z,96.51
2019-02-09T03:41:25.376Z,96.12
2019-02-09T03:42:23.961Z,96.6
2019-02-09T03:43:22.576Z,96.89
2019-02-09T03:44:21.147Z,97.36
2019-02-09T03:45:19.668Z,97.36
2019-02-09T03:46:18.276Z,96.89
2019-02-09T03:47:16.914Z,97.17
2019-02-09T03:48:15.446Z,96.89
2019-02-09T03:49:14.082Z,97.65
2019-02-09T03:50:12.680Z,96.98
2019-02-09T03:51:11.252Z,96.51
2019-02-09T03:52:09.821Z,96.51
2019-02-09T03:53:08.377Z,97.08
2019-02-09T03:54:06.963Z,97.08
2019-02-09T03:55:05.544Z,97.65
2019-02-09T03:56:04.096Z,97.74
2019-02-09T03:57:02.759Z,97.84
2019-02-09T03:58:01.299Z,98.32
2019-02-09T03:58:59.878Z,98.22
2019-02-09T03:59:58.664Z,98.22
2019-02-09T04:00:57.224Z,98.13
2019-02-09T04:01:55.746Z,97.13
2019-02-09T04:02:54.418Z,97.36
2019-02-09T04:03:53.054Z,97.17
2019-02-09T04:04:51.587Z,97.46
2019-02-09T04:05:50.126Z,97.27
2019-02-09T04:06:48.696Z,97.31
2019-02-09T04:07:47.291Z,96.84
2019-02-09T04:08:45.820Z,97.41
2019-02-09T04:09:44.576Z,97.22
2019-02-09T04:10:43.112Z,97.22
2019-02-09T04:11:41.661Z,97.13
2019-02-09T04:12:40.246Z,97.51
2019-02-09T04:13:38.954Z,97.03
2019-02-09T04:14:37.570Z,96.27
2019-02-09T04:15:36.142Z,95.79
2019-02-09T04:16:34.809Z,95.89
2019-02-09T04:17:33.469Z,95.12
2019-02-09T04:18:31.985Z,94.93
2019-02-09T04:19:30.812Z,94.56
2019-02-09T04:20:29.346Z,94.37
2019-02-09T04:21:27.894Z,94.37
2019-02-09T04:22:26.753Z,94.46
2019-02-09T04:23:25.313Z,93.89
2019-02-09T04:24:23.843Z,93.41
2019-02-09T04:25:22.521Z,93.13
2019-02-09T04:26:21.068Z,93.6
2019-02-09T04:27:20.536Z,93.7
2019-02-09T04:28:18.419Z,93.32
2019-02-09T04:29:17.133Z,93.79
2019-02-09T04:30:15.678Z,93.03
2019-02-09T04:31:14.374Z,92.84
2019-02-09T04:32:12.922Z,93.13
2019-02-09T04:33:11.473Z,93.22
2019-02-09T04:34:10.022Z,92.84
2019-02-09T04:35:08.589Z,93.7
2019-02-09T04:36:07.192Z,93.7
2019-02-09T04:37:06.595Z,93.41
2019-02-09T04:38:05.203Z,94.08
2019-02-09T04:39:03.737Z,93.41
2019-02-09T04:40:02.297Z,93.98
2019-02-09T04:41:00.978Z,93.7
2019-02-09T04:41:59.518Z,93.51
2019-02-09T04:42:58.224Z,92.94
2019-02-09T04:43:56.877Z,92.94
2019-02-09T04:44:55.400Z,93.51
2019-02-09T04:45:53.986Z,93.51
2019-02-09T04:46:52.521Z,93.51
2019-02-09T04:47:51.179Z,93.51
2019-02-09T04:48:49.758Z,93.32
2019-02-09T04:49:48.993Z,93.51
2019-02-09T04:50:47.547Z,93.13
2019-02-09T04:51:46.117Z,93.13
2019-02-09T04:52:44.751Z,92.94
2019-02-09T04:53:43.304Z,93.41
2019-02-09T04:54:41.858Z,93.22
2019-02-09T04:55:40.427Z,93.03
2019-02-09T04:56:38.987Z,93.13
2019-02-09T04:57:37.531Z,93.13
2019-02-09T04:58:36.070Z,93.03
2019-02-09T04:59:34.615Z,93.03
2019-02-09T05:00:33.174Z,93.22
2019-02-09T05:01:31.716Z,93.6
2019-02-09T05:02:30.521Z,93.22
2019-02-09T05:03:29.164Z,92.55
2019-02-09T05:04:27.723Z,92.94
2019-02-09T05:05:26.465Z,93.22
2019-02-09T05:06:25.064Z,93.37
2019-02-09T05:07:23.635Z,93.55
2019-02-09T05:08:22.170Z,93.22
2019-02-09T05:09:20.723Z,93.22
2019-02-09T05:10:19.278Z,92.89
2019-02-09T05:11:17.866Z,92.94
2019-02-09T05:12:16.416Z,92.6
2019-02-09T05:13:15.153Z,93.27
2019-02-09T05:14:13.730Z,93.03
2019-02-09T05:15:12.524Z,92.32
2019-02-09T05:16:11.198Z,92.65
2019-02-09T05:17:09.761Z,92.89
2019-02-09T05:18:08.283Z,93.22
2019-02-09T05:19:07.089Z,93.03
2019-02-09T05:20:05.640Z,93.13
2019-02-09T05:21:04.185Z,93.98
2019-02-09T05:22:02.874Z,92.94
2019-02-09T05:23:01.421Z,92.94
2019-02-09T05:23:59.988Z,93.79
2019-02-09T05:24:58.694Z,93.17
2019-02-09T05:25:57.257Z,92.79
2019-02-09T05:26:55.817Z,93.08
2019-02-09T05:27:54.455Z,92.94
2019-02-09T05:28:53.044Z,92.84
2019-02-09T05:29:51.618Z,93.32
2019-02-09T05:30:50.176Z,93.03
2019-02-09T05:31:48.873Z,92.98
2019-02-09T05:32:47.429Z,92.79
2019-02-09T05:33:46.127Z,93.17
2019-02-09T05:34:44.822Z,93.27
2019-02-09T05:35:43.365Z,93.08
2019-02-09T05:36:41.954Z,92.89
2019-02-09T05:37:40.606Z,93.17
2019-02-09T05:38:39.170Z,93.08
2019-02-09T05:39:38.483Z,92.89
2019-02-09T05:40:37.247Z,93.37
2019-02-09T05:41:35.784Z,93.55
2019-02-09T05:42:34.439Z,92.89
2019-02-09T05:43:33.142Z,92.69
2019-02-09T05:44:31.686Z,92.32
2019-02-09T05:45:30.509Z,92.89
2019-02-09T05:46:29.151Z,92.98
2019-02-09T05:47:27.697Z,93.22
2019-02-09T05:48:26.244Z,93.08
2019-02-09T05:49:24.820Z,92.65
2019-02-09T05:50:23.356Z,93.22
2019-02-09T05:51:21.866Z,92.98
2019-02-09T05:52:20.427Z,93.27
2019-02-09T05:53:19.001Z,92.69
2019-02-09T05:54:17.559Z,93.17
2019-02-09T05:55:16.423Z,93.17
2019-02-09T05:56:15.079Z,93.65
2019-02-09T05:57:13.660Z,93.27
2019-02-09T05:58:12.420Z,93.93
2019-02-09T05:59:10.959Z,93.27
2019-02-09T06:00:09.520Z,93.65
2019-02-09T06:01:08.131Z,94.7
2019-02-09T06:02:06.876Z,94.41
2019-02-09T06:03:05.485Z,95.75
2019-02-09T06:04:04.049Z,96.8
2019-02-09T06:05:02.676Z,96.98
2019-02-09T06:06:01.220Z,98.41
2019-02-09T06:06:59.783Z,99.27
2019-02-09T06:07:58.431Z,99.08
2019-02-09T06:08:57.226Z,99.99
2019-02-09T06:09:55.774Z,99.99
2019-02-09T06:10:54.537Z,99.99
2019-02-09T06:11:53.118Z,99.99
2019-02-09T06:12:51.872Z,99.99
2019-02-09T06:13:50.480Z,99.99
2019-02-09T06:14:49.063Z,99.99
2019-02-09T06:15:47.871Z,99.99
2019-02-09T06:16:46.742Z,99.99
2019-02-09T06:17:45.309Z,99.99
2019-02-09T06:18:43.853Z,99.99
2019-02-09T06:19:42.489Z,99.99
2019-02-09T06:20:41.080Z,99.99
2019-02-09T06:21:40.595Z,99.99
2019-02-09T06:22:39.389Z,99.99
2019-02-09T06:23:37.967Z,99.99
2019-02-09T06:24:36.528Z,99.99
2019-02-09T06:25:35.084Z,99.99
2019-02-09T06:26:33.645Z,99.99
2019-02-09T06:27:32.590Z,99.99
2019-02-09T06:28:31.115Z,99.99
2019-02-09T06:29:29.651Z,99.99
2019-02-09T06:30:28.268Z,99.99
2019-02-09T06:31:26.808Z,99.99
2019-02-09T06:32:25.356Z,99.99
2019-02-09T06:33:23.895Z,99.99
2019-02-09T06:34:22.498Z,99.99
2019-02-09T06:35:21.045Z,99.99
2019-02-09T06:36:19.608Z,99.99
2019-02-09T06:37:18.162Z,99.99
2019-02-09T06:38:16.681Z,99.99
2019-02-09T06:39:15.298Z,99.99
2019-02-09T06:40:13.859Z,99.99
2019-02-09T06:41:12.565Z,99.99
2019-02-09T06:42:11.094Z,99.99
2019-02-09T06:43:09.644Z,99.99
2019-02-09T06:44:08.262Z,99.99
2019-02-09T06:45:06.908Z,99.99
2019-02-09T06:46:05.434Z,99.99
2019-02-09T06:47:03.989Z,99.99
2019-02-09T06:48:02.587Z,99.99
2019-02-09T06:49:01.253Z,99.99
2019-02-09T06:49:59.820Z,99.99
2019-02-09T06:50:58.602Z,99.99
2019-02-09T06:51:57.176Z,99.99
2019-02-09T06:52:55.732Z,99.99
2019-02-09T06:53:54.364Z,99.99
2019-02-09T06:54:53.005Z,99.99
2019-02-09T06:55:51.564Z,99.99
2019-02-09T06:56:50.462Z,99.99
2019-02-09T06:57:49.023Z,99.99
2019-02-09T06:58:47.581Z,99.99
2019-02-09T06:59:46.382Z,99.99
2019-02-09T07:00:45.145Z,99.99
2019-02-09T07:01:48.510Z,99.99
2019-02-09T07:02:42.431Z,99.99
2019-02-09T07:03:41.237Z,99.99
2019-02-09T07:04:39.775Z,99.99
2019-02-09T07:05:38.843Z,99.99
2019-02-09T07:06:37.376Z,99.99
2019-02-09T07:07:35.947Z,99.99
2019-02-09T07:08:34.569Z,99.99
2019-02-09T07:09:33.166Z,99.99
2019-02-09T07:10:31.741Z,99.99
2019-02-09T07:11:30.550Z,99.99
2019-02-09T07:12:29.148Z,99.99
2019-02-09T07:13:27.715Z,99.99
2019-02-09T07:14:26.312Z,99.99
2019-02-09T07:15:25.203Z,99.99
2019-02-09T07:16:23.761Z,99.99
2019-02-09T07:17:22.294Z,99.99
2019-02-09T07:18:20.841Z,99.99
2019-02-09T07:19:19.417Z,99.99
2019-02-09T07:20:18.015Z,99.99
2019-02-09T07:21:16.636Z,99.99
2019-02-09T07:22:15.207Z,99.99
2019-02-09T07:23:13.770Z,99.99
2019-02-09T07:24:12.583Z,99.99
2019-02-09T07:25:11.234Z,99.99
2019-02-09T07:26:09.791Z,99.99
2019-02-09T07:27:08.325Z,99.99
2019-02-09T07:28:06.899Z,99.99
2019-02-09T07:29:05.441Z,99.99
2019-02-09T07:30:03.999Z,99.99
2019-02-09T07:31:02.815Z,99.99
2019-02-09T07:32:01.413Z,99.99
2019-02-09T07:33:00.000Z,99.99
2019-02-09T07:33:58.750Z,99.94
2019-02-09T07:34:57.321Z,99.84
2019-02-09T07:35:55.855Z,99.32
2019-02-09T07:36:54.425Z,98.99
2019-02-09T07:37:53.034Z,99.37
2019-02-09T07:38:51.629Z,98.79
2019-02-09T07:39:50.246Z,98.32
2019-02-09T07:40:48.965Z,98.51
2019-02-09T07:41:47.527Z,97.17
2019-02-09T07:42:46.145Z,96.89
2019-02-09T07:43:44.801Z,96.8
2019-02-09T07:44:43.347Z,95.65
2019-02-09T07:45:41.929Z,96.12
2019-02-09T07:46:40.553Z,95.46
2019-02-09T07:47:39.243Z,95.17
2019-02-09T07:48:37.813Z,94.89
2019-02-09T07:49:36.352Z,93.74
2019-02-09T07:50:35.133Z,93.27
2019-02-09T07:51:33.713Z,92.98
2019-02-09T07:52:32.349Z,93.17
2019-02-09T07:55:12.461Z,93.74
2019-02-09T07:56:11.097Z,93.65
2019-02-09T07:57:09.699Z,92.89
2019-02-09T07:59:49.706Z,92.5
2019-02-09T08:00:48.498Z,92.69
2019-02-09T08:01:47.084Z,92.69
2019-02-09T08:02:45.648Z,92.69
2019-02-09T08:03:44.304Z,91.74
2019-02-09T08:04:43.200Z,91.84
2019-02-09T08:05:41.764Z,91.36
2019-02-09T08:06:41.309Z,90.79
2019-02-09T08:07:38.936Z,90.98
2019-02-09T08:08:37.486Z,90.22
2019-02-09T08:09:36.019Z,89.84
2019-02-09T08:10:34.791Z,89.07
2019-02-09T08:11:33.360Z,89.07
2019-02-09T08:12:31.905Z,89.36
2019-02-09T08:13:30.647Z,89.31
2019-02-09T08:14:29.487Z,89.5
2019-02-09T08:15:28.037Z,89.17
2019-02-09T08:16:26.688Z,88.84
2019-02-09T08:17:25.240Z,89.79
2019-02-09T08:18:23.796Z,89.31
2019-02-09T08:19:22.455Z,89.5
2019-02-09T08:20:21.169Z,89.5
2019-02-09T08:21:19.814Z,89.69
2019-02-09T08:22:18.390Z,89.5
2019-02-09T08:23:17.011Z,89.5
2019-02-09T08:24:15.595Z,89.31
2019-02-09T08:25:14.188Z,89.4
2019-02-09T08:26:12.836Z,89.22
2019-02-09T08:27:13.554Z,89.22
2019-02-09T08:28:12.152Z,88.93
2019-02-09T08:29:10.890Z,89.6
2019-02-09T08:30:09.477Z,89.12
2019-02-09T08:31:08.017Z,88.93
2019-02-09T08:32:12.412Z,89.6
2019-02-09T08:33:05.212Z,90.08
2019-02-09T08:34:03.766Z,89.69
2019-02-09T08:35:02.302Z,89.5
2019-02-09T08:36:00.837Z,88.64
2019-02-09T08:36:59.445Z,88.64
2019-02-09T08:37:58.046Z,89.31
2019-02-09T08:38:56.778Z,89.12
2019-02-09T08:41:39.813Z,89.31
2019-02-09T08:42:39.906Z,88.74
2019-02-09T08:43:37.106Z,88.74
2019-02-09T08:44:35.672Z,88.31
2019-02-09T08:46:35.279Z,88.02
2019-02-09T08:47:33.818Z,88.12
2019-02-09T08:48:32.420Z,88.59
2019-02-09T08:49:31.112Z,88.45
2019-02-09T08:50:29.688Z,88.74
2019-02-09T08:51:28.243Z,89.22
2019-02-09T08:52:26.826Z,89.36
2019-02-09T08:53:25.382Z,89.4
2019-02-09T08:54:23.915Z,90.08
2019-02-09T08:55:22.519Z,90.26
2019-02-09T08:56:21.076Z,89.98
2019-02-09T08:57:19.639Z,90.55
2019-02-09T08:58:18.289Z,90.84
2019-02-09T08:59:16.942Z,91.13
2019-02-09T09:00:15.558Z,90.74
2019-02-09T09:01:14.172Z,90.26
2019-02-09T09:02:20.131Z,91.13
2019-02-09T09:03:11.456Z,91.6
2019-02-09T09:04:10.016Z,91.79
2019-02-09T09:05:09.884Z,92.17
2019-02-09T09:06:07.161Z,92.36
2019-02-09T09:07:05.718Z,93.32
2019-02-09T09:08:04.508Z,93.7
2019-02-09T09:09:03.186Z,94.27
2019-02-09T09:10:01.871Z,94.37
2019-02-09T09:11:01.428Z,95.51
2019-02-09T09:11:59.069Z,95.32
2019-02-09T09:12:57.631Z,95.12
2019-02-09T09:13:56.192Z,94.65
2019-02-09T09:14:54.909Z,94.17
2019-02-09T09:15:53.457Z,93.88
2019-02-09T09:16:52.170Z,94.17
2019-02-09T09:17:50.824Z,94.65
2019-02-09T09:18:49.376Z,94.56
2019-02-09T09:19:47.952Z,94.74
2019-02-09T09:20:46.638Z,94.65
2019-02-09T09:21:45.263Z,94.46
2019-02-09T09:22:43.824Z,93.7
2019-02-09T09:23:42.423Z,93.88
2019-02-09T09:24:41.043Z,93.88
2019-02-09T09:25:39.617Z,93.98
2019-02-09T09:26:38.221Z,94.08
2019-02-09T09:27:37.069Z,94.08
2019-02-09T09:28:35.628Z,94.08
2019-02-09T09:29:34.257Z,93.7
2019-02-09T09:30:32.924Z,93.12
2019-02-09T09:31:31.518Z,93.03
2019-02-09T09:32:30.119Z,92.84
2019-02-09T09:33:29.299Z,92.93
2019-02-09T09:34:27.863Z,93.12
2019-02-09T09:35:26.434Z,93.12
2019-02-09T09:36:25.044Z,93.32
2019-02-09T09:37:23.654Z,93.32
2019-02-09T09:38:22.403Z,93.03
2019-02-09T09:39:21.052Z,93.6
2019-02-09T09:40:19.642Z,94.56
2019-02-09T09:41:18.321Z,93.88
2019-02-09T09:42:17.015Z,94.51
2019-02-09T09:43:15.566Z,95.22
2019-02-09T09:44:14.140Z,95.89
2019-02-09T09:45:12.970Z,96.17
2019-02-09T09:46:11.531Z,96.17
2019-02-09T09:47:10.088Z,96.65
2019-02-09T09:48:08.938Z,96.65
2019-02-09T09:49:07.464Z,97.51
2019-02-09T09:50:06.015Z,97.89
2019-02-09T09:51:04.674Z,98.75
2019-02-09T09:52:03.221Z,98.18
2019-02-09T09:53:01.820Z,98.56
2019-02-09T09:54:00.405Z,98.36
2019-02-09T09:54:59.165Z,97.22
2019-02-09T09:55:57.718Z,98.08
2019-02-09T09:56:56.280Z,98.08
2019-02-09T09:57:55.117Z,97.46
2019-02-09T09:58:53.699Z,97.37
2019-02-09T09:59:52.260Z,96.98
2019-02-09T10:00:50.851Z,97.46
2019-02-09T10:03:42.588Z,96.22
2019-02-09T10:04:41.138Z,96.51
2019-02-09T10:05:39.676Z,96.94
2019-02-09T10:06:38.446Z,96.41
2019-02-09T10:07:37.039Z,96.51
2019-02-09T10:08:35.636Z,96.56
2019-02-09T10:09:34.368Z,97.03
2019-02-09T10:10:33.066Z,97.32
2019-02-09T10:11:31.615Z,97.13
2019-02-09T10:12:30.138Z,97.41
2019-02-09T10:13:28.766Z,96.36
2019-02-09T10:14:27.302Z,96.03
2019-02-09T10:15:25.850Z,95.79
2019-02-09T10:16:24.565Z,95.22
2019-02-09T10:17:23.135Z,95.37
2019-02-09T10:18:21.709Z,94.84
2019-02-09T10:19:20.271Z,94.37
2019-02-09T10:20:19.050Z,94.79
2019-02-09T10:32:07.636Z,94.46
2019-02-09T10:34:48.001Z,94.56
2019-02-09T10:35:46.663Z,94.65
2019-02-09T10:36:45.311Z,94.27
2019-02-09T10:37:43.888Z,94.46
2019-02-09T10:38:42.441Z,94.46
2019-02-09T10:39:40.973Z,94.41
2019-02-09T10:40:39.526Z,94.03
2019-02-09T10:41:38.074Z,93.84
2019-02-09T10:42:36.831Z,93.55
2019-02-09T10:43:35.421Z,93.93
2019-02-09T10:44:33.974Z,93.17
2019-02-09T10:45:32.734Z,93.74
2019-02-09T10:46:31.394Z,93.08
2019-02-09T10:47:30.096Z,93.08
2019-02-09T10:48:28.666Z,93.08
2019-02-09T10:49:27.211Z,92.79
2019-02-09T10:53:06.143Z,92.22
2019-02-09T10:54:04.772Z,92.32
2019-02-09T10:55:03.444Z,92.12
2019-02-09T10:56:02.110Z,91.93
2019-02-09T10:57:00.783Z,91.27
2019-02-09T10:57:59.470Z,91.69
2019-02-09T10:58:58.019Z,91.6
2019-02-09T10:59:56.645Z,91.17
2019-02-09T11:00:55.432Z,90.83
2019-02-09T11:01:53.975Z,90.69
2019-02-09T11:02:52.754Z,90.93
2019-02-09T11:03:51.237Z,90.73
2019-02-09T11:04:49.821Z,89.88
2019-02-09T11:05:48.382Z,90.07
2019-02-09T11:06:47.073Z,89.88
2019-02-09T11:07:45.725Z,89.4
2019-02-09T11:08:44.351Z,88.83
2019-02-09T11:09:42.944Z,88.73
2019-02-09T11:10:41.475Z,88.26
2019-02-09T11:11:39.999Z,88.35
2019-02-09T11:12:38.839Z,88.83
2019-02-09T11:13:37.430Z,88.64
2019-02-09T11:14:35.976Z,87.97
2019-02-09T11:15:34.710Z,88.07
2019-02-09T11:16:33.273Z,87.11
2019-02-09T11:17:31.875Z,87.68
2019-02-09T11:18:30.559Z,87.02
2019-02-09T11:19:29.288Z,87.11
2019-02-09T11:20:27.884Z,86.92
2019-02-09T11:21:26.430Z,87.21
2019-02-09T11:22:25.075Z,86.63
2019-02-09T11:23:23.658Z,86.44
2019-02-09T11:24:22.213Z,86.63
2019-02-09T11:25:21.013Z,86.54
2019-02-09T11:26:19.607Z,86.35
2019-02-09T11:27:18.284Z,86.16
2019-02-09T11:28:17.011Z,85.87
2019-02-09T11:29:15.604Z,85.25
2019-02-09T11:30:14.165Z,84.77
2019-02-09T11:31:12.700Z,84.67
2019-02-09T11:32:11.333Z,83.72
2019-02-09T11:33:09.956Z,83.72
2019-02-09T11:34:08.631Z,82.76
2019-02-09T11:35:07.313Z,82.76
2019-02-09T11:36:05.944Z,82.57
2019-02-09T11:37:04.659Z,82
2019-02-09T11:38:03.261Z,81.9
2019-02-09T11:39:01.900Z,80.95
2019-02-09T11:40:00.717Z,80.9
2019-02-09T11:42:40.941Z,80.61
2019-02-09T11:43:39.501Z,80.51
2019-02-09T11:44:41.091Z,80.22
2019-02-09T11:45:36.703Z,79.56
2019-02-09T11:46:35.300Z,79.46
2019-02-09T11:47:33.880Z,79.27
2019-02-09T11:48:32.672Z,80.41
2019-02-09T11:51:13.227Z,79.17
2019-02-09T11:52:11.809Z,78.89
2019-02-09T11:53:10.523Z,78.13
2019-02-09T11:54:09.195Z,78.79
2019-02-09T11:55:07.986Z,78.89
2019-02-09T11:56:06.599Z,78.7
2019-02-09T11:57:05.156Z,78.51
2019-02-09T11:58:03.721Z,78.7
2019-02-09T12:13:25.543Z,77.17
2019-02-09T12:16:09.678Z,78.31
2019-02-09T12:17:08.389Z,78.09
2019-02-09T12:20:49.004Z,78.85
2019-02-09T12:21:47.521Z,78.94
2019-02-09T12:22:46.244Z,78.47
2019-02-09T12:23:44.849Z,78.89
2019-02-09T12:24:43.395Z,79.36
2019-02-09T12:25:42.011Z,79.75
2019-02-09T12:26:40.761Z,79.9
2019-02-09T12:27:39.505Z,80.28
2019-02-09T12:28:37.950Z,80.85
2019-02-09T12:29:37.249Z,80.47
2019-02-09T12:32:17.443Z,81.24
2019-02-09T12:50:16.551Z,80.76
2019-02-09T12:51:15.739Z,80.47
2019-02-09T12:52:14.245Z,79.48
2019-02-09T12:53:13.107Z,79.1
2019-02-09T12:54:11.815Z,78.66
2019-02-09T12:55:10.546Z,78.28
2019-02-09T12:56:09.239Z,78.37
2019-02-09T12:57:07.807Z,78.56
2019-02-09T12:58:06.470Z,79.23
2019-02-09T13:00:30.538Z,79.14
2019-02-09T13:01:29.326Z,78.22
2019-02-09T13:02:27.871Z,77.55
2019-02-09T13:03:31.134Z,77.26
2019-02-09T13:04:24.986Z,76.88
2019-02-09T13:05:23.789Z,76.5
2019-02-09T13:06:22.481Z,76.79
2019-02-09T13:07:21.231Z,76.6
2019-02-09T13:08:19.804Z,76.69
2019-02-09T13:09:18.347Z,75.93
2019-02-09T13:10:17.286Z,76.69
2019-02-09T13:11:15.805Z,76.21
2019-02-09T13:12:14.381Z,75.64
2019-02-09T13:13:13.097Z,75.93
2019-02-09T13:14:11.799Z,75.26
2019-02-09T13:15:10.495Z,75.35
2019-02-09T13:16:09.280Z,74.69
2019-02-09T13:17:07.899Z,74.69
2019-02-09T13:18:06.800Z,74.88
2019-02-09T13:19:05.437Z,74.78
2019-02-09T13:20:04.139Z,74.59
2019-02-09T13:21:02.760Z,75.35
2019-02-09T13:23:43.214Z,74.59
2019-02-09T13:24:41.811Z,75.16
2019-02-09T13:28:03.104Z,74.69
2019-02-09T13:29:01.696Z,75.74
2019-02-09T13:30:00.264Z,74.98
2019-02-09T13:31:00.036Z,75.45
2019-02-09T13:31:57.439Z,75.54
2019-02-09T13:32:56.025Z,75.64
2019-02-09T13:33:54.584Z,75.07
2019-02-09T13:34:53.243Z,75.45
2019-02-09T13:35:51.807Z,75.64
2019-02-09T13:36:50.534Z,75.45
2019-02-09T13:37:49.335Z,75.26
2019-02-09T13:38:47.911Z,74.59
2019-02-09T13:39:46.733Z,74.88
2019-02-09T13:40:45.399Z,74.78
2019-02-09T13:41:43.949Z,74.98
2019-02-09T13:42:42.641Z,74.88
2019-02-09T13:43:41.348Z,74.98
2019-02-09T13:44:39.894Z,74.49
2019-02-09T13:45:38.433Z,74.59
2019-02-09T13:52:25.425Z,74.73